This is the latest recevied weather packets stored in our database for station/object LRIA. If no packets are shown the sender has not sent any weather packets the latest 1 day(s).
| Time | Temp. | Humidity | Pressure | Rain* | Wind** | Luminosity | Snow |
|---|---|---|---|---|---|---|---|
| 1836274124 | 17.22° C | 88% | 1026 hPa | - | 4.02 m/s, 300° | - | - |
| 1778060003 | 23.89° C | 29% | 1014 hPa | - | 4.02 m/s, 160° | - | - |
| 1778059103 | 23.89° C | 34% | 1014 hPa | - | 3.13 m/s, 180° | - | - |
| 1778058203 | 23.89° C | 34% | 1014 hPa | - | 3.13 m/s, 180° | - | - |
| 1778057303 | 22.78° C | 36% | 1014 hPa | - | 2.24 m/s, 130° | - | - |
| 1778056403 | 22.78° C | 36% | 1014 hPa | - | 2.24 m/s, 130° | - | - |
| 1778055500 | 21.11° C | 40% | 1014 hPa | - | 2.24 m/s, 130° | - | - |
| 1778054603 | 21.11° C | 40% | 1014 hPa | - | 2.24 m/s, 130° | - | - |
| 1778053704 | 18.89° C | 46% | 1014 hPa | - | 2.68 m/s, 120° | - | - |
| 1778052803 | 18.89° C | 46% | 1014 hPa | - | 2.68 m/s, 120° | - | - |
| 1778051903 | 17.78° C | 49% | 1014 hPa | - | 2.68 m/s, 130° | - | - |
| 1778051003 | 17.78° C | 49% | 1014 hPa | - | 2.68 m/s, 130° | - | - |
| 1778050103 | 17.22° C | 45% | 1014 hPa | - | 3.58 m/s, 120° | - | - |
| 1778049203 | 17.22° C | 45% | 1014 hPa | - | 3.58 m/s, 120° | - | - |
| 1778048303 | 15° C | 51% | 1014 hPa | - | 4.02 m/s, 120° | - | - |
| 1778047405 | 15° C | 51% | 1014 hPa | - | 4.02 m/s, 120° | - | - |
| 1778046504 | 13.89° C | 55% | 1014 hPa | - | 4.02 m/s, 120° | - | - |
| 1778045611 | 13.89° C | 55% | 1014 hPa | - | 4.02 m/s, 120° | - | - |
| 1778044703 | 12.78° C | 55% | 1014 hPa | - | 4.02 m/s, 110° | - | - |
| 1778043817 | 12.78° C | 55% | 1014 hPa | - | 4.02 m/s, 110° | - | - |
| 1778042919 | 12.22° C | 58% | 1014 hPa | - | 3.58 m/s, 110° | - | - |
| 1778042007 | 12.22° C | 58% | 1014 hPa | - | 3.58 m/s, 110° | - | - |
| 1778041104 | 11.11° C | 62% | 1014 hPa | - | 3.58 m/s, 100° | - | - |
| 1778040203 | 11.11° C | 62% | 1014 hPa | - | 3.58 m/s, 100° | - | - |
| 1778039304 | 10° C | 62% | 1014 hPa | - | 3.58 m/s, 100° | - | - |
* Rain since midnight (hover to see other rain measurements)
** Current wind speed in m/s (hover to see current wind gust speed)